Angler Guide Weather for Wawa -
Wawa, Ontario Current Weather Conditions
Enter your "Place, State", US Zip Code or ICAO:  
Forecast Information Radar Information
Wawa, Ontario, Canada  Lat: 48.00N, Lon: 84.80E
ICAO Used: UNBB
Current Conditions
Updated:
Sun & Moon Information:
Temp: N/A
Humidity: N/A
Wind Speed: N/A
Barometer: N/A
Dewpoint: N/A
Heat Index: N/A
Wind Chill: N/A
Civil Twilight: 8:22 PM EST
Moonrise: 2:31 PM EST Moon Phase:
Waning Crescent Moon
Waning Crescent Moon
Moonset: 2:22 AM EST
Sunrise: 8:58 PM EST
Sunset: 5:26 AM EST
Civil Twilight: 6:03 AM EST
Forecast for Wawa, ON:
(Forecast based on TAF for )
0325 PM EST MON NOV 06 2006
  
AFTERNOONEVENINGOVERNIGHT
MISTMISTMIST
MistMistMist
TAF based forecast:
Dated: 0325 PM EST MON NOV 06 2006
Afternoon...Clear with winds variable at 7 mph. Possible periods of partly cloudy with smoke and mist.
Evening...Clear with winds variable at 7 mph. Possible periods of partly cloudy with smoke and mist.
Overnight...Clear with winds variable at 7 mph. Possible periods of partly cloudy with smoke and mist.
Original Encoded TAF:
Dated: 0325 PM EST MON NOV 06 2006
2006/11/06 20:25
UNBB 062025Z 062210 VRB03MPS CAVOK TM00/22Z TEMPO 2204 1500 FU BR SCT005 =




Powered by Angler Guide.com
Copyright 2007, all rights reserved.